Time;durP1;ratioP1;P1;durP2;ratioP2;P2;SDS_P1;SDS_P2;PMS_P1;PMS_P2;Temp;Humidity;BMP_temperature;BMP_pressure;BME280_temperature;BME280_humidity;BME280_pressure;Samples;Min_cycle;Max_cycle;Signal;HPM_P1;HPM_P2
2022/06/06 00:01:54;;;;;;;0.00;0.00;;;;;;;;;;5058818;28;20423;-68
2022/06/06 00:04:20;;;;;;;0.00;0.00;;;;;;;;;;5066369;28;20517;-66
2022/06/06 00:06:46;;;;;;;0.00;0.00;;;;;;;;;;5061592;28;20023;-67
2022/06/06 00:09:12;;;;;;;0.00;0.00;;;;;;;;;;5067099;28;20087;-66
2022/06/06 00:11:40;;;;;;;0.00;0.00;;;;;;;;;;5059705;28;20387;-67
2022/06/06 00:14:06;;;;;;;0.00;0.00;;;;;;;;;;5065619;28;20119;-67
2022/06/06 00:16:31;;;;;;;0.00;0.00;;;;;;;;;;5043692;28;20115;-67
2022/06/06 00:18:57;;;;;;;0.00;0.00;;;;;;;;;;5051859;28;20427;-67
2022/06/06 00:21:23;;;;;;;0.00;0.00;;;;;;;;;;5059182;28;20056;-67
2022/06/06 00:23:49;;;;;;;0.00;0.00;;;;;;;;;;5060491;28;20028;-67
2022/06/06 00:26:15;;;;;;;0.00;0.00;;;;;;;;;;5060924;28;20067;-67
2022/06/06 00:28:43;;;;;;;0.00;0.00;;;;;;;;;;5053759;28;20025;-67
2022/06/06 00:36:37;;;;;;;0.00;0.00;;;;;;;;;;5055720;28;20496;-67
2022/06/06 00:39:03;;;;;;;0.00;0.00;;;;;;;;;;5066554;28;20132;-67
2022/06/06 00:41:29;;;;;;;0.00;0.00;;;;;;;;;;5066863;28;20446;-68
2022/06/06 00:44:14;;;;;;;0.00;0.00;;;;;;;;;;5066784;28;20025;-66
2022/06/06 00:46:44;;;;;;;0.00;0.00;;;;;;;;;;5036926;28;20143;-67
2022/06/06 00:49:16;;;;;;;0.00;0.00;;;;;;;;;;5066443;28;20389;-67
2022/06/06 00:51:41;;;;;;;0.00;0.00;;;;;;;;;;5060242;28;20040;-67
2022/06/06 00:54:06;;;;;;;0.00;0.00;;;;;;;;;;5066558;28;20028;-68
2022/06/06 00:56:31;;;;;;;0.00;0.00;;;;;;;;;;5058279;28;20013;-67
2022/06/06 00:58:59;;;;;;;0.00;0.00;;;;;;;;;;5056184;28;20087;-67
2022/06/06 01:01:26;;;;;;;0.00;0.00;;;;;;;;;;5060969;28;20271;-66
2022/06/06 01:03:51;;;;;;;0.00;0.00;;;;;;;;;;5064200;28;20463;-67
2022/06/06 01:06:18;;;;;;;0.00;0.00;;;;;;;;;;5059215;28;20033;-66
2022/06/06 01:08:46;;;;;;;0.00;0.00;;;;;;;;;;5065178;28;20031;-67
2022/06/06 01:11:11;;;;;;;0.00;0.00;;;;;;;;;;5065020;28;20035;-67
2022/06/06 01:13:38;;;;;;;0.00;0.00;;;;;;;;;;5067104;28;20139;-66
2022/06/06 01:16:14;;;;;;;0.00;0.00;;;;;;;;;;5065461;28;20091;-67
2022/06/06 01:18:59;;;;;;;0.00;0.00;;;;;;;;;;5060540;28;20024;-67
2022/06/06 01:21:45;;;;;;;0.00;0.00;;;;;;;;;;5005367;28;20082;-67
2022/06/06 01:24:46;;;;;;;0.00;0.00;;;;;;;;;;5063111;28;20024;-67
2022/06/06 01:27:17;;;;;;;0.00;0.00;;;;;;;;;;4961584;28;20105;-67
2022/06/06 01:29:45;;;;;;;0.00;0.00;;;;;;;;;;5045700;28;20120;-67
2022/06/06 01:32:12;;;;;;;0.00;0.00;;;;;;;;;;5065507;28;20119;-66
2022/06/06 01:34:39;;;;;;;0.00;0.00;;;;;;;;;;5061848;28;20025;-67
2022/06/06 01:37:21;;;;;;;0.00;0.00;;;;;;;;;;5060407;28;20022;-66
2022/06/06 01:39:46;;;;;;;0.00;0.00;;;;;;;;;;5063297;28;20020;-66
2022/06/06 01:42:14;;;;;;;0.00;0.00;;;;;;;;;;5063151;28;20718;-66
2022/06/06 01:44:48;;;;;;;0.00;0.00;;;;;;;;;;5062530;28;20029;-66
2022/06/06 01:47:18;;;;;;;0.00;0.00;;;;;;;;;;5062485;28;20056;-66
2022/06/06 01:49:45;;;;;;;0.00;0.00;;;;;;;;;;5062813;28;20432;-67
2022/06/06 01:52:12;;;;;;;0.00;0.00;;;;;;;;;;5062287;28;20033;-66
2022/06/06 01:54:37;;;;;;;0.00;0.00;;;;;;;;;;5054913;28;20473;-66
2022/06/06 01:57:03;;;;;;;0.00;0.00;;;;;;;;;;5058997;28;20071;-66
2022/06/06 01:59:29;;;;;;;0.00;0.00;;;;;;;;;;5059794;28;20042;-67
2022/06/06 02:01:54;;;;;;;0.00;0.00;;;;;;;;;;5064897;28;20024;-67
2022/06/06 02:04:20;;;;;;;0.00;0.00;;;;;;;;;;5059812;28;20119;-67
2022/06/06 02:06:45;;;;;;;0.00;0.00;;;;;;;;;;5065178;28;20016;-67
2022/06/06 02:09:11;;;;;;;0.00;0.00;;;;;;;;;;5065925;28;20529;-66
2022/06/06 02:11:36;;;;;;;0.00;0.00;;;;;;;;;;5064756;28;20048;-67
2022/06/06 02:14:01;;;;;;;0.00;0.00;;;;;;;;;;5053087;28;20017;-65
2022/06/06 02:16:27;;;;;;;0.00;0.00;;;;;;;;;;5065800;28;20052;-66
2022/06/06 02:18:53;;;;;;;0.00;0.00;;;;;;;;;;5059982;28;20016;-66
2022/06/06 02:21:18;;;;;;;0.00;0.00;;;;;;;;;;5064507;28;20529;-66
2022/06/06 02:23:43;;;;;;;0.10;0.10;;;;;;;;;;5052280;28;20792;-67
2022/06/06 02:26:09;;;;;;;0.43;0.43;;;;;;;;;;5059877;28;20032;-65
2022/06/06 02:28:36;;;;;;;0.00;0.00;;;;;;;;;;5064210;28;20154;-67
2022/06/06 02:31:02;;;;;;;0.00;0.00;;;;;;;;;;5060782;28;20741;-66
2022/06/06 02:33:27;;;;;;;0.00;0.00;;;;;;;;;;5064319;28;20036;-66
2022/06/06 02:35:53;;;;;;;0.00;0.00;;;;;;;;;;5065945;28;20016;-67
2022/06/06 02:38:19;;;;;;;0.00;0.00;;;;;;;;;;5068560;28;20055;-67
2022/06/06 02:40:44;;;;;;;0.00;0.00;;;;;;;;;;5063032;28;20032;-66
2022/06/06 02:43:10;;;;;;;0.00;0.00;;;;;;;;;;5068854;28;20022;-65
2022/06/06 02:45:35;;;;;;;0.00;0.00;;;;;;;;;;5068195;28;20461;-66
2022/06/06 02:48:00;;;;;;;0.00;0.00;;;;;;;;;;5062948;28;20385;-65
2022/06/06 02:50:29;;;;;;;0.00;0.00;;;;;;;;;;5065463;28;20071;-65
2022/06/06 02:52:54;;;;;;;0.00;0.00;;;;;;;;;;5055411;28;20028;-66
2022/06/06 02:55:20;;;;;;;0.00;0.00;;;;;;;;;;5064166;28;20334;-65
2022/06/06 02:57:46;;;;;;;0.00;0.00;;;;;;;;;;5065473;28;20017;-66
2022/06/06 03:00:14;;;;;;;0.00;0.00;;;;;;;;;;5067789;28;20044;-66
2022/06/06 03:02:39;;;;;;;0.00;0.00;;;;;;;;;;5062505;28;20032;-67
2022/06/06 03:05:05;;;;;;;0.90;0.90;;;;;;;;;;5067879;28;20458;-67
2022/06/06 03:07:48;;;;;;;0.43;0.43;;;;;;;;;;5068423;28;20696;-67
2022/06/06 03:10:23;;;;;;;0.00;0.00;;;;;;;;;;5068701;28;20489;-66
2022/06/06 03:12:48;;;;;;;0.00;0.00;;;;;;;;;;5062179;28;20024;-67
2022/06/06 03:15:22;;;;;;;0.00;0.00;;;;;;;;;;5068488;28;20024;-66
2022/06/06 03:20:56;;;;;;;0.00;0.00;;;;;;;;;;5057584;28;20547;-65
2022/06/06 03:23:37;;;;;;;0.00;0.00;;;;;;;;;;5061037;28;20432;-65
2022/06/06 03:26:12;;;;;;;0.00;0.00;;;;;;;;;;5064589;28;20020;-65
2022/06/06 03:28:49;;;;;;;0.00;0.00;;;;;;;;;;5061898;28;20040;-66
2022/06/06 03:31:34;;;;;;;0.00;0.00;;;;;;;;;;5048767;28;20040;-66
2022/06/06 03:34:05;;;;;;;0.00;0.00;;;;;;;;;;5057834;28;20029;-66
2022/06/06 03:36:38;;;;;;;0.00;0.00;;;;;;;;;;5067377;28;20023;-65
2022/06/06 03:39:06;;;;;;;0.00;0.00;;;;;;;;;;5062009;28;20019;-66
2022/06/06 03:41:57;;;;;;;0.00;0.00;;;;;;;;;;5067763;28;20021;-66
2022/06/06 03:44:28;;;;;;;0.00;0.00;;;;;;;;;;5021514;28;20103;-66
2022/06/06 03:46:55;;;;;;;0.00;0.00;;;;;;;;;;5067688;28;20401;-66
2022/06/06 03:49:38;;;;;;;0.00;0.00;;;;;;;;;;5054494;28;20029;-66
2022/06/06 03:52:24;;;;;;;0.00;0.00;;;;;;;;;;5063622;28;20653;-66
2022/06/06 03:55:08;;;;;;;0.00;0.00;;;;;;;;;;5000343;28;20191;-66
2022/06/06 03:57:35;;;;;;;0.00;0.00;;;;;;;;;;5061014;28;20134;-66
2022/06/06 04:00:01;;;;;;;0.00;0.00;;;;;;;;;;5056156;28;20051;-66
2022/06/06 04:02:31;;;;;;;0.00;0.00;;;;;;;;;;5067724;28;20032;-66
2022/06/06 04:04:59;;;;;;;0.17;0.17;;;;;;;;;;5060683;28;20024;-66
2022/06/06 04:07:24;;;;;;;0.03;0.03;;;;;;;;;;5061982;28;20532;-66
2022/06/06 04:09:52;;;;;;;0.00;0.00;;;;;;;;;;5066959;28;20016;-67
2022/06/06 04:12:17;;;;;;;0.00;0.00;;;;;;;;;;5062694;28;20471;-67
2022/06/06 04:14:45;;;;;;;0.00;0.00;;;;;;;;;;5066640;28;20027;-67
2022/06/06 04:17:29;;;;;;;0.00;0.00;;;;;;;;;;5052032;28;20107;-68
2022/06/06 04:19:57;;;;;;;0.00;0.00;;;;;;;;;;5057957;28;20029;-67
2022/06/06 04:22:27;;;;;;;0.00;0.00;;;;;;;;;;5057198;28;20021;-67
2022/06/06 04:25:13;;;;;;;0.00;0.00;;;;;;;;;;5066634;28;20105;-67
2022/06/06 04:27:42;;;;;;;0.00;0.00;;;;;;;;;;5066768;28;20020;-66
2022/06/06 04:30:14;;;;;;;0.00;0.00;;;;;;;;;;5066768;28;20481;-67
2022/06/06 04:32:51;;;;;;;0.00;0.00;;;;;;;;;;5060271;28;20067;-65
2022/06/06 04:35:21;;;;;;;0.00;0.00;;;;;;;;;;5060920;28;20023;-66
2022/06/06 04:37:53;;;;;;;0.00;0.00;;;;;;;;;;5060457;28;20029;-66
2022/06/06 04:40:36;;;;;;;0.00;0.00;;;;;;;;;;5061456;28;20024;-65
2022/06/06 04:43:01;;;;;;;0.00;0.00;;;;;;;;;;5056856;28;20109;-65
2022/06/06 04:45:29;;;;;;;0.00;0.00;;;;;;;;;;5066354;28;20099;-65
2022/06/06 04:47:55;;;;;;;0.00;0.00;;;;;;;;;;5055348;28;20274;-66
2022/06/06 04:50:21;;;;;;;0.00;0.00;;;;;;;;;;5066673;28;20463;-65
2022/06/06 04:52:51;;;;;;;0.00;0.00;;;;;;;;;;5059618;28;20013;-66
2022/06/06 04:55:18;;;;;;;0.00;0.00;;;;;;;;;;5063022;28;20038;-66
2022/06/06 04:57:45;;;;;;;0.00;0.00;;;;;;;;;;5064117;28;20016;-66
2022/06/06 05:00:10;;;;;;;0.00;0.00;;;;;;;;;;5063199;28;20480;-64
2022/06/06 05:02:36;;;;;;;0.22;0.22;;;;;;;;;;5065182;28;20028;-66
2022/06/06 05:05:01;;;;;;;0.00;0.00;;;;;;;;;;5060969;28;20036;-66
2022/06/06 05:07:45;;;;;;;0.20;0.20;;;;;;;;;;5065554;28;20029;-66
2022/06/06 05:10:26;;;;;;;0.00;0.00;;;;;;;;;;5058100;28;20033;-66
2022/06/06 05:12:54;;;;;;;0.00;0.00;;;;;;;;;;5066276;28;20027;-67
2022/06/06 05:15:38;;;;;;;0.17;0.17;;;;;;;;;;5063681;28;20095;-66
2022/06/06 05:18:09;;;;;;;0.00;0.00;;;;;;;;;;5057255;28;20469;-66
2022/06/06 05:20:47;;;;;;;0.00;0.00;;;;;;;;;;5050298;28;20017;-66
2022/06/06 05:23:14;;;;;;;0.00;0.00;;;;;;;;;;5063293;28;20021;-66
2022/06/06 05:25:58;;;;;;;1.55;0.90;;;;;;;;;;5066128;28;20030;-66
2022/06/06 05:28:30;;;;;;;0.00;0.00;;;;;;;;;;5066043;28;20031;-66
2022/06/06 05:31:16;;;;;;;0.10;0.05;;;;;;;;;;5059822;28;20134;-67
2022/06/06 05:33:44;;;;;;;0.60;0.60;;;;;;;;;;5003385;28;20040;-67
2022/06/06 05:36:24;;;;;;;0.00;0.00;;;;;;;;;;5059595;28;20029;-67
2022/06/06 05:39:08;;;;;;;0.00;0.00;;;;;;;;;;5065341;28;20032;-66
2022/06/06 05:41:52;;;;;;;0.00;0.00;;;;;;;;;;5059336;28;20029;-65
2022/06/06 05:44:56;;;;;;;0.00;0.00;;;;;;;;;;5055503;28;20025;-65
2022/06/06 05:47:36;;;;;;;0.00;0.00;;;;;;;;;;4986526;28;20061;-66
2022/06/06 05:50:22;;;;;;;0.88;0.88;;;;;;;;;;4986165;28;20030;-66
2022/06/06 05:52:57;;;;;;;0.30;0.30;;;;;;;;;;5037012;28;20036;-67
2022/06/06 05:55:28;;;;;;;0.00;0.00;;;;;;;;;;5060699;28;20102;-66
2022/06/06 05:58:05;;;;;;;0.00;0.00;;;;;;;;;;5066052;28;20680;-67
2022/06/06 06:00:34;;;;;;;0.00;0.00;;;;;;;;;;5061826;28;20016;-66
2022/06/06 06:03:08;;;;;;;0.00;0.00;;;;;;;;;;5058187;28;20032;-66
2022/06/06 06:05:43;;;;;;;0.00;0.00;;;;;;;;;;5065192;28;20085;-66
2022/06/06 06:08:23;;;;;;;0.20;0.20;;;;;;;;;;5046909;28;20029;-64
2022/06/06 06:10:55;;;;;;;0.00;0.00;;;;;;;;;;5060377;28;20877;-67
2022/06/06 06:13:35;;;;;;;0.00;0.00;;;;;;;;;;5064130;28;20036;-65
2022/06/06 06:16:02;;;;;;;0.43;0.43;;;;;;;;;;5043081;28;20415;-66
2022/06/06 06:18:34;;;;;;;1.42;0.52;;;;;;;;;;5062741;28;20016;-67
2022/06/06 06:21:02;;;;;;;0.17;0.17;;;;;;;;;;5069469;28;20020;-66
2022/06/06 06:23:30;;;;;;;0.08;0.08;;;;;;;;;;5066867;28;20025;-66
2022/06/06 06:25:57;;;;;;;0.10;0.10;;;;;;;;;;5069815;28;20040;-66
2022/06/06 06:28:23;;;;;;;0.55;0.55;;;;;;;;;;5058094;28;20481;-66
2022/06/06 06:31:04;;;;;;;0.75;0.75;;;;;;;;;;5058032;28;20144;-66
2022/06/06 06:33:38;;;;;;;0.20;0.20;;;;;;;;;;5066408;28;20036;-66
2022/06/06 06:36:06;;;;;;;0.13;0.13;;;;;;;;;;5062537;28;20020;-67
2022/06/06 06:38:41;;;;;;;0.00;0.00;;;;;;;;;;5061563;28;20028;-65
2022/06/06 06:41:23;;;;;;;0.00;0.00;;;;;;;;;;5064210;28;20365;-66
2022/06/06 06:44:07;;;;;;;0.63;0.63;;;;;;;;;;5036175;28;20864;-66
2022/06/06 06:46:34;;;;;;;0.00;0.00;;;;;;;;;;5068016;28;20012;-66
2022/06/06 06:49:10;;;;;;;0.10;0.10;;;;;;;;;;5034762;28;20591;-67
2022/06/06 06:51:38;;;;;;;0.00;0.00;;;;;;;;;;5052281;28;20032;-67
2022/06/06 06:54:28;;;;;;;0.00;0.00;;;;;;;;;;5051531;28;20027;-67
2022/06/06 06:56:54;;;;;;;0.00;0.00;;;;;;;;;;5058014;28;20028;-67
2022/06/06 06:59:34;;;;;;;0.00;0.00;;;;;;;;;;5067471;28;20033;-67
2022/06/06 07:10:36;;;;;;;0.00;0.00;;;;;;;;;;5054716;28;20119;-67
2022/06/06 07:13:17;;;;;;;1.00;1.00;;;;;;;;;;5056477;28;20048;-68
2022/06/06 07:15:51;;;;;;;0.10;0.10;;;;;;;;;;5056740;28;20025;-66
2022/06/06 07:18:18;;;;;;;0.00;0.00;;;;;;;;;;5056601;28;20024;-66
2022/06/06 07:20:44;;;;;;;0.22;0.22;;;;;;;;;;5061457;28;20025;-66
2022/06/06 07:23:11;;;;;;;0.10;0.10;;;;;;;;;;5062223;28;20028;-66
2022/06/06 07:25:45;;;;;;;1.50;1.40;;;;;;;;;;5065588;28;20359;-66
2022/06/06 07:28:12;;;;;;;0.00;0.00;;;;;;;;;;5063865;28;20124;-66
2022/06/06 07:30:43;;;;;;;0.38;0.38;;;;;;;;;;5062160;28;20043;-66
2022/06/06 07:33:12;;;;;;;0.00;0.00;;;;;;;;;;5063030;28;20444;-67
2022/06/06 07:35:39;;;;;;;;;;;;;;;;;;5065985;28;20032;-66
2022/06/06 07:38:04;;;;;;;0.00;0.00;;;;;;;;;;5057990;28;20671;-66
2022/06/06 07:40:29;;;;;;;0.40;0.40;;;;;;;;;;5056625;28;20104;-66
2022/06/06 07:43:06;;;;;;;2.45;2.35;;;;;;;;;;5050959;28;20429;-67
2022/06/06 07:45:39;;;;;;;0.00;0.00;;;;;;;;;;5060318;28;20075;-67
2022/06/06 07:48:10;;;;;;;1.05;1.00;;;;;;;;;;5049918;28;20029;-68
2022/06/06 07:50:44;;;;;;;0.05;0.05;;;;;;;;;;5063229;28;20115;-66
2022/06/06 07:53:32;;;;;;;0.00;0.00;;;;;;;;;;5068618;28;20137;-68
2022/06/06 07:56:11;;;;;;;0.00;0.00;;;;;;;;;;5059938;28;20385;-68
2022/06/06 07:58:36;;;;;;;0.00;0.00;;;;;;;;;;5057978;28;20032;-67
2022/06/06 08:01:09;;;;;;;0.20;0.20;;;;;;;;;;5027419;28;20033;-69
2022/06/06 08:03:43;;;;;;;0.00;0.00;;;;;;;;;;5059228;28;20029;-67
2022/06/06 08:06:09;;;;;;;0.00;0.00;;;;;;;;;;5059215;28;20032;-68
2022/06/06 08:08:35;;;;;;;0.00;0.00;;;;;;;;;;5051471;28;20440;-68
2022/06/06 08:11:19;;;;;;;0.00;0.00;;;;;;;;;;5048780;28;20044;-69
2022/06/06 08:14:02;;;;;;;0.00;0.00;;;;;;;;;;5057167;28;20485;-68
2022/06/06 08:16:29;;;;;;;0.00;0.00;;;;;;;;;;5056393;28;20020;-69
2022/06/06 08:18:58;;;;;;;0.15;0.15;;;;;;;;;;5058187;28;20082;-68
2022/06/06 08:21:43;;;;;;;0.00;0.00;;;;;;;;;;5060578;28;20028;-69
2022/06/06 08:24:25;;;;;;;0.00;0.00;;;;;;;;;;5053872;28;20039;-66
2022/06/06 08:26:51;;;;;;;0.00;0.00;;;;;;;;;;5055249;28;20115;-65
2022/06/06 08:29:17;;;;;;;0.85;0.85;;;;;;;;;;5054610;28;20048;-64
2022/06/06 08:31:42;;;;;;;0.00;0.00;;;;;;;;;;5064766;28;20028;-64
2022/06/06 08:34:08;;;;;;;0.22;0.22;;;;;;;;;;5055493;28;20016;-63
2022/06/06 08:36:52;;;;;;;0.00;0.00;;;;;;;;;;5047096;28;20017;-62
2022/06/06 08:39:40;;;;;;;0.00;0.00;;;;;;;;;;5045705;28;20073;-64
2022/06/06 08:42:11;;;;;;;0.10;0.10;;;;;;;;;;5015646;28;20729;-64
2022/06/06 08:44:39;;;;;;;0.30;0.30;;;;;;;;;;5050990;28;20017;-63
2022/06/06 08:47:08;;;;;;;0.00;0.00;;;;;;;;;;5057327;28;20028;-63
2022/06/06 08:52:36;;;;;;;0.17;0.17;;;;;;;;;;5060575;28;20261;-63
2022/06/06 08:55:20;;;;;;;0.10;0.10;;;;;;;;;;5049424;28;20027;-63
2022/06/06 08:57:45;;;;;;;0.00;0.00;;;;;;;;;;5060743;28;20066;-63
2022/06/06 09:00:20;;;;;;;0.53;0.53;;;;;;;;;;5054934;28;20457;-64
2022/06/06 09:03:04;;;;;;;0.00;0.00;;;;;;;;;;5060720;28;20654;-63
2022/06/06 09:05:48;;;;;;;0.00;0.00;;;;;;;;;;5053401;28;20024;-62
2022/06/06 09:08:31;;;;;;;0.03;0.03;;;;;;;;;;5041336;28;20420;-63
2022/06/06 09:10:59;;;;;;;0.00;0.00;;;;;;;;;;5048848;28;20039;-63
2022/06/06 09:13:37;;;;;;;0.00;0.00;;;;;;;;;;5050664;28;20032;-64
2022/06/06 09:16:03;;;;;;;0.77;0.77;;;;;;;;;;5054432;28;20233;-63
2022/06/06 09:18:31;;;;;;;1.45;0.57;;;;;;;;;;5057704;28;20025;-64
2022/06/06 09:21:13;;;;;;;0.00;0.00;;;;;;;;;;5051452;28;20021;-65
2022/06/06 09:23:57;;;;;;;0.00;0.00;;;;;;;;;;5052228;28;20123;-63
2022/06/06 09:26:32;;;;;;;0.30;0.13;;;;;;;;;;5052635;28;20033;-64
2022/06/06 09:29:07;;;;;;;0.00;0.00;;;;;;;;;;5056920;28;20053;-64
2022/06/06 09:31:34;;;;;;;1.77;1.77;;;;;;;;;;5025452;28;20029;-64
2022/06/06 09:34:21;;;;;;;0.00;0.00;;;;;;;;;;5045919;28;20171;-64
2022/06/06 09:36:58;;;;;;;0.20;0.20;;;;;;;;;;5040934;28;20021;-65
2022/06/06 09:39:23;;;;;;;0.05;0.05;;;;;;;;;;5047290;28;20027;-65
2022/06/06 09:41:49;;;;;;;0.00;0.00;;;;;;;;;;5051279;28;20024;-66
2022/06/06 09:44:33;;;;;;;0.00;0.00;;;;;;;;;;5058993;28;20744;-65
2022/06/06 09:47:04;;;;;;;0.00;0.00;;;;;;;;;;5053838;28;20025;-65
2022/06/06 09:49:35;;;;;;;0.00;0.00;;;;;;;;;;5065181;28;20056;-65
2022/06/06 09:52:11;;;;;;;0.80;0.80;;;;;;;;;;5060068;28;20056;-63
2022/06/06 10:00:29;;;;;;;0.13;0.13;;;;;;;;;;5049834;28;20810;-63
2022/06/06 10:03:16;;;;;;;0.05;0.05;;;;;;;;;;5063889;28;20032;-64
2022/06/06 10:06:00;;;;;;;0.00;0.00;;;;;;;;;;5049461;28;20115;-65
2022/06/06 10:08:57;;;;;;;0.00;0.00;;;;;;;;;;5065586;28;20862;-64
2022/06/06 10:11:29;;;;;;;0.95;0.52;;;;;;;;;;5003814;28;20620;-64
2022/06/06 10:14:12;;;;;;;0.00;0.00;;;;;;;;;;5059520;28;20027;-64
2022/06/06 10:16:38;;;;;;;0.90;0.90;;;;;;;;;;5052962;28;20021;-64
2022/06/06 10:19:06;;;;;;;0.20;0.20;;;;;;;;;;5054384;28;20020;-64
2022/06/06 10:21:37;;;;;;;0.00;0.00;;;;;;;;;;5050855;28;20079;-63
2022/06/06 10:24:11;;;;;;;0.10;0.10;;;;;;;;;;5053548;28;20117;-64
2022/06/06 10:26:46;;;;;;;0.00;0.00;;;;;;;;;;5049413;28;20025;-64
2022/06/06 10:30:10;;;;;;;0.60;0.60;;;;;;;;;;5047540;28;20053;-64
2022/06/06 10:32:27;;;;;;;0.00;0.00;;;;;;;;;;5052608;28;20040;-64
2022/06/06 10:34:55;;;;;;;0.00;0.00;;;;;;;;;;5052280;28;20017;-65
2022/06/06 10:37:33;;;;;;;0.08;0.08;;;;;;;;;;5051770;28;20039;-64
2022/06/06 10:40:10;;;;;;;0.00;0.00;;;;;;;;;;5058576;28;20044;-63
2022/06/06 10:42:36;;;;;;;0.00;0.00;;;;;;;;;;5047825;28;20028;-64
2022/06/06 10:45:19;;;;;;;0.00;0.00;;;;;;;;;;5054147;28;20033;-65
2022/06/06 10:47:51;;;;;;;0.00;0.00;;;;;;;;;;5057467;28;20028;-66
2022/06/06 10:50:16;;;;;;;0.30;0.10;;;;;;;;;;5063179;28;20047;-64
2022/06/06 10:52:41;;;;;;;0.00;0.00;;;;;;;;;;5065340;28;20028;-64
2022/06/06 10:55:22;;;;;;;0.00;0.00;;;;;;;;;;5063976;28;20055;-64
2022/06/06 10:58:06;;;;;;;0.00;0.00;;;;;;;;;;5062621;28;20024;-64
2022/06/06 11:00:47;;;;;;;0.00;0.00;;;;;;;;;;5064068;28;20013;-65
2022/06/06 11:03:25;;;;;;;0.00;0.00;;;;;;;;;;5053052;28;20113;-66
2022/06/06 11:05:50;;;;;;;0.00;0.00;;;;;;;;;;5060075;28;20024;-67
2022/06/06 11:08:18;;;;;;;0.00;0.00;;;;;;;;;;5065312;28;20606;-66
2022/06/06 11:10:43;;;;;;;0.00;0.00;;;;;;;;;;5064448;28;20267;-66
2022/06/06 11:13:27;;;;;;;0.98;0.77;;;;;;;;;;5064093;28;20039;-64
2022/06/06 11:16:12;;;;;;;0.68;0.68;;;;;;;;;;5055905;28;20032;-64
2022/06/06 11:18:57;;;;;;;0.00;0.00;;;;;;;;;;5043486;28;20150;-64
2022/06/06 11:21:40;;;;;;;0.00;0.00;;;;;;;;;;5046179;28;20024;-65
2022/06/06 11:24:28;;;;;;;0.00;0.00;;;;;;;;;;5046883;28;20098;-65
2022/06/06 11:27:02;;;;;;;0.05;0.00;;;;;;;;;;5046759;28;20028;-65
2022/06/06 11:29:46;;;;;;;0.00;0.00;;;;;;;;;;5038754;28;20047;-63
2022/06/06 11:32:29;;;;;;;0.00;0.00;;;;;;;;;;5047744;28;20033;-65
2022/06/06 11:35:16;;;;;;;0.00;0.00;;;;;;;;;;5049133;28;20964;-65
2022/06/06 11:37:48;;;;;;;0.47;0.47;;;;;;;;;;5041944;28;20833;-67
2022/06/06 11:40:13;;;;;;;0.38;0.38;;;;;;;;;;5043719;28;20021;-66
2022/06/06 11:42:38;;;;;;;0.73;0.73;;;;;;;;;;5043599;28;20025;-65
2022/06/06 11:45:16;;;;;;;0.30;0.30;;;;;;;;;;5047048;28;20021;-66
2022/06/06 11:47:52;;;;;;;0.00;0.00;;;;;;;;;;5045300;28;20251;-66
2022/06/06 11:50:17;;;;;;;0.10;0.10;;;;;;;;;;5048055;28;20020;-66
2022/06/06 11:53:08;;;;;;;0.70;0.70;;;;;;;;;;5044687;28;20029;-66
2022/06/06 11:55:48;;;;;;;0.00;0.00;;;;;;;;;;5045050;28;20087;-65
2022/06/06 11:58:43;;;;;;;1.35;1.10;;;;;;;;;;5046912;28;20028;-66
2022/06/06 12:01:08;;;;;;;0.70;0.70;;;;;;;;;;4991810;28;20088;-66
2022/06/06 12:03:52;;;;;;;0.50;0.25;;;;;;;;;;5046902;28;20469;-66
2022/06/06 12:06:23;;;;;;;1.50;0.43;;;;;;;;;;5045368;28;20803;-65
2022/06/06 12:09:00;;;;;;;18.65;2.95;;;;;;;;;;5041799;28;20029;-66
2022/06/06 12:11:46;;;;;;;0.60;0.60;;;;;;;;;;5043381;28;20524;-66
2022/06/06 12:14:30;;;;;;;0.15;0.15;;;;;;;;;;5043656;28;20025;-64
2022/06/06 12:17:04;;;;;;;0.75;0.52;;;;;;;;;;5042992;28;20033;-64
2022/06/06 12:19:30;;;;;;;0.20;0.20;;;;;;;;;;5047884;28;20083;-64
2022/06/06 12:22:11;;;;;;;0.53;0.53;;;;;;;;;;5048328;28;20124;-66
2022/06/06 12:24:40;;;;;;;5.60;1.52;;;;;;;;;;5046320;28;20267;-65
2022/06/06 12:27:23;;;;;;;0.57;0.57;;;;;;;;;;5049318;28;20056;-66
2022/06/06 12:29:51;;;;;;;1.10;0.68;;;;;;;;;;5043067;28;20517;-65
2022/06/06 12:32:35;;;;;;;6.78;1.58;;;;;;;;;;5043742;28;20024;-65
2022/06/06 12:35:21;;;;;;;0.95;0.95;;;;;;;;;;5046643;28;20533;-66
2022/06/06 12:38:04;;;;;;;0.77;0.77;;;;;;;;;;5047994;28;20035;-65
2022/06/06 12:40:48;;;;;;;0.75;0.75;;;;;;;;;;5057523;28;20664;-65
2022/06/06 12:43:25;;;;;;;0.00;0.00;;;;;;;;;;5060122;28;20028;-65
2022/06/06 12:46:00;;;;;;;0.00;0.00;;;;;;;;;;5044411;28;20028;-65
2022/06/06 12:48:56;;;;;;;0.00;0.00;;;;;;;;;;5054872;28;20035;-65
2022/06/06 12:51:23;;;;;;;0.00;0.00;;;;;;;;;;4992663;28;20073;-65
2022/06/06 12:53:55;;;;;;;0.77;0.73;;;;;;;;;;5059720;28;20024;-65
2022/06/06 12:56:38;;;;;;;0.10;0.10;;;;;;;;;;5055390;28;20389;-65
2022/06/06 12:59:22;;;;;;;0.63;0.57;;;;;;;;;;5055772;28;20028;-65
2022/06/06 13:01:50;;;;;;;0.10;0.10;;;;;;;;;;5062977;28;20040;-66
2022/06/06 13:04:18;;;;;;;0.57;0.57;;;;;;;;;;5058576;28;20031;-65
2022/06/06 13:06:50;;;;;;;0.00;0.00;;;;;;;;;;5063585;28;20112;-65
2022/06/06 13:09:27;;;;;;;0.65;0.65;;;;;;;;;;5064711;28;20020;-65
2022/06/06 13:11:58;;;;;;;0.38;0.38;;;;;;;;;;5059841;28;20020;-65
2022/06/06 13:14:23;;;;;;;0.40;0.28;;;;;;;;;;5062321;28;20032;-67
2022/06/06 13:16:57;;;;;;;0.98;0.52;;;;;;;;;;5049167;28;20032;-65
2022/06/06 13:19:40;;;;;;;0.03;0.03;;;;;;;;;;5046695;28;20637;-65
2022/06/06 13:22:08;;;;;;;0.40;0.40;;;;;;;;;;5054138;28;20043;-65
2022/06/06 13:24:48;;;;;;;1.30;0.82;;;;;;;;;;5065169;28;20020;-65
2022/06/06 13:27:14;;;;;;;0.25;0.25;;;;;;;;;;5055278;28;20504;-66
2022/06/06 13:29:39;;;;;;;0.50;0.50;;;;;;;;;;5056477;28;20049;-66
2022/06/06 13:32:04;;;;;;;0.63;0.50;;;;;;;;;;5054660;28;20271;-65
2022/06/06 13:34:37;;;;;;;0.00;0.00;;;;;;;;;;5059867;28;20024;-65
2022/06/06 13:37:02;;;;;;;0.38;0.38;;;;;;;;;;5065083;28;20020;-65
2022/06/06 13:39:30;;;;;;;0.13;0.13;;;;;;;;;;5064887;28;20028;-66
2022/06/06 13:42:03;;;;;;;5.68;1.40;;;;;;;;;;5058643;28;20434;-64
2022/06/06 13:44:47;;;;;;;0.22;0.22;;;;;;;;;;5065325;28;20029;-65
2022/06/06 13:47:21;;;;;;;0.63;0.50;;;;;;;;;;5058832;28;20027;-66
2022/06/06 13:49:46;;;;;;;1.10;0.30;;;;;;;;;;5065230;28;20056;-67
2022/06/06 13:52:11;;;;;;;0.10;0.10;;;;;;;;;;5051327;28;20060;-67
2022/06/06 13:54:37;;;;;;;0.93;0.93;;;;;;;;;;5054158;28;20359;-66
2022/06/06 13:57:03;;;;;;;3.10;0.45;;;;;;;;;;5063046;28;20349;-66
2022/06/06 13:59:46;;;;;;;0.57;0.57;;;;;;;;;;5065825;28;20027;-66
2022/06/06 14:02:26;;;;;;;0.32;0.32;;;;;;;;;;5057656;28;20036;-65
2022/06/06 14:05:00;;;;;;;0.30;0.30;;;;;;;;;;5059761;28;20025;-65
2022/06/06 14:07:26;;;;;;;0.20;0.20;;;;;;;;;;5054552;28;20500;-65
2022/06/06 14:09:58;;;;;;;9.63;0.90;;;;;;;;;;5064157;28;20055;-65
2022/06/06 14:12:36;;;;;;;0.20;0.20;;;;;;;;;;5047852;28;20278;-66
2022/06/06 14:15:12;;;;;;;2.10;0.73;;;;;;;;;;5058320;28;20070;-66
2022/06/06 14:17:38;;;;;;;0.75;0.68;;;;;;;;;;5048511;28;20017;-66
2022/06/06 14:20:22;;;;;;;0.15;0.15;;;;;;;;;;5063705;28;20042;-66
2022/06/06 14:22:48;;;;;;;0.03;0.03;;;;;;;;;;5046020;28;20035;-65
2022/06/06 14:25:14;;;;;;;0.43;0.43;;;;;;;;;;5050942;28;20029;-65
2022/06/06 14:27:39;;;;;;;0.55;0.55;;;;;;;;;;5053639;28;20064;-65
2022/06/06 14:30:11;;;;;;;0.20;0.20;;;;;;;;;;5063321;28;20048;-66
2022/06/06 14:32:42;;;;;;;0.00;0.00;;;;;;;;;;5060900;28;20358;-66
2022/06/06 14:35:14;;;;;;;0.43;0.40;;;;;;;;;;5060342;28;20020;-65
2022/06/06 14:37:40;;;;;;;1.50;1.40;;;;;;;;;;5049914;28;20040;-66
2022/06/06 14:40:07;;;;;;;0.35;0.35;;;;;;;;;;5063669;28;20615;-65
2022/06/06 14:42:32;;;;;;;0.38;0.38;;;;;;;;;;5057285;28;20016;-66
2022/06/06 14:45:00;;;;;;;0.03;0.03;;;;;;;;;;5055979;28;20469;-65
2022/06/06 14:47:26;;;;;;;0.10;0.10;;;;;;;;;;5057822;28;20389;-66
2022/06/06 14:52:38;;;;;;;0.47;0.47;;;;;;;;;;5055763;28;20545;-65
2022/06/06 14:55:04;;;;;;;0.00;0.00;;;;;;;;;;5063030;28;20028;-65
2022/06/06 14:57:31;;;;;;;5.20;1.67;;;;;;;;;;5064625;28;20025;-65
2022/06/06 14:59:58;;;;;;;0.00;0.00;;;;;;;;;;5068100;28;20016;-64
2022/06/06 15:02:25;;;;;;;0.00;0.00;;;;;;;;;;5067632;28;20736;-65
2022/06/06 15:05:09;;;;;;;0.20;0.20;;;;;;;;;;5055931;28;20040;-64
2022/06/06 15:07:40;;;;;;;0.00;0.00;;;;;;;;;;5068150;28;20389;-65
2022/06/06 15:10:07;;;;;;;0.10;0.10;;;;;;;;;;5062266;28;20112;-65
2022/06/06 15:12:32;;;;;;;0.00;0.00;;;;;;;;;;5058691;28;20017;-66
2022/06/06 15:15:06;;;;;;;0.00;0.00;;;;;;;;;;5060533;28;20047;-65
2022/06/06 15:17:33;;;;;;;0.00;0.00;;;;;;;;;;5062556;28;20024;-67
2022/06/06 15:20:00;;;;;;;0.22;0.22;;;;;;;;;;5066994;28;20019;-66
2022/06/06 15:22:31;;;;;;;0.10;0.10;;;;;;;;;;5056360;28;20021;-64
2022/06/06 15:24:56;;;;;;;0.52;0.40;;;;;;;;;;5054847;28;20016;-63
2022/06/06 15:27:22;;;;;;;0.00;0.00;;;;;;;;;;5064897;28;20021;-64
2022/06/06 15:29:50;;;;;;;0.00;0.00;;;;;;;;;;5059288;28;20533;-63
2022/06/06 15:32:18;;;;;;;0.00;0.00;;;;;;;;;;5064729;28;20100;-62
2022/06/06 15:34:52;;;;;;;0.25;0.25;;;;;;;;;;5059033;28;20021;-63
2022/06/06 15:37:18;;;;;;;0.00;0.00;;;;;;;;;;5062776;28;20466;-64
2022/06/06 15:39:43;;;;;;;0.10;0.10;;;;;;;;;;5063316;28;20029;-63
2022/06/06 15:42:18;;;;;;;0.00;0.00;;;;;;;;;;5065412;28;20071;-62
2022/06/06 15:44:53;;;;;;;2.28;0.40;;;;;;;;;;5064516;28;20258;-64